sensor_id;sensor_type;location;lat;lon;timestamp;P1;durP1;ratioP1;P2;durP2;ratioP2
53253;SDS011;75200;53.048;7.552;2024-02-15T00:02:21;27.10;;;15.20;;
53253;SDS011;75200;53.048;7.552;2024-02-15T00:04:47;23.83;;;14.07;;
53253;SDS011;75200;53.048;7.552;2024-02-15T00:07:13;23.70;;;13.60;;
53253;SDS011;75200;53.048;7.552;2024-02-15T00:09:39;21.58;;;13.63;;
53253;SDS011;75200;53.048;7.552;2024-02-15T00:12:06;24.00;;;13.23;;
53253;SDS011;75200;53.048;7.552;2024-02-15T00:14:33;22.98;;;13.45;;
53253;SDS011;75200;53.048;7.552;2024-02-15T00:16:59;23.25;;;14.65;;
53253;SDS011;75200;53.048;7.552;2024-02-15T00:19:25;27.83;;;16.10;;
53253;SDS011;75200;53.048;7.552;2024-02-15T00:21:55;23.50;;;14.57;;
53253;SDS011;75200;53.048;7.552;2024-02-15T00:24:21;30.15;;;16.30;;
53253;SDS011;75200;53.048;7.552;2024-02-15T00:26:49;27.77;;;15.93;;
53253;SDS011;75200;53.048;7.552;2024-02-15T00:29:14;26.10;;;15.35;;
53253;SDS011;75200;53.048;7.552;2024-02-15T00:31:40;30.67;;;16.50;;
53253;SDS011;75200;53.048;7.552;2024-02-15T00:34:06;28.27;;;16.13;;
53253;SDS011;75200;53.048;7.552;2024-02-15T00:36:33;28.98;;;16.88;;
53253;SDS011;75200;53.048;7.552;2024-02-15T00:38:59;35.78;;;19.00;;
53253;SDS011;75200;53.048;7.552;2024-02-15T00:41:25;36.75;;;19.20;;
53253;SDS011;75200;53.048;7.552;2024-02-15T00:43:51;38.78;;;20.35;;
53253;SDS011;75200;53.048;7.552;2024-02-15T00:46:17;38.10;;;20.13;;
53253;SDS011;75200;53.048;7.552;2024-02-15T00:48:42;39.95;;;20.08;;
53253;SDS011;75200;53.048;7.552;2024-02-15T00:51:09;41.50;;;20.23;;
53253;SDS011;75200;53.048;7.552;2024-02-15T00:53:34;44.60;;;22.50;;
53253;SDS011;75200;53.048;7.552;2024-02-15T00:56:00;38.72;;;21.63;;
53253;SDS011;75200;53.048;7.552;2024-02-15T00:58:26;43.78;;;22.88;;
53253;SDS011;75200;53.048;7.552;2024-02-15T01:00:52;58.10;;;24.08;;
53253;SDS011;75200;53.048;7.552;2024-02-15T01:03:19;44.72;;;22.50;;
53253;SDS011;75200;53.048;7.552;2024-02-15T01:05:45;50.33;;;25.55;;
53253;SDS011;75200;53.048;7.552;2024-02-15T01:08:11;39.80;;;22.98;;
53253;SDS011;75200;53.048;7.552;2024-02-15T01:10:37;43.80;;;23.90;;
53253;SDS011;75200;53.048;7.552;2024-02-15T01:13:03;39.83;;;22.92;;
53253;SDS011;75200;53.048;7.552;2024-02-15T01:15:29;43.00;;;22.83;;
53253;SDS011;75200;53.048;7.552;2024-02-15T01:17:55;45.88;;;23.83;;
53253;SDS011;75200;53.048;7.552;2024-02-15T01:20:21;49.00;;;24.83;;
53253;SDS011;75200;53.048;7.552;2024-02-15T01:22:47;46.60;;;24.88;;
53253;SDS011;75200;53.048;7.552;2024-02-15T01:25:13;48.92;;;24.88;;
53253;SDS011;75200;53.048;7.552;2024-02-15T01:27:40;47.70;;;23.08;;
53253;SDS011;75200;53.048;7.552;2024-02-15T01:30:07;44.47;;;22.23;;
53253;SDS011;75200;53.048;7.552;2024-02-15T01:32:33;40.65;;;21.55;;
53253;SDS011;75200;53.048;7.552;2024-02-15T01:34:59;40.22;;;20.13;;
53253;SDS011;75200;53.048;7.552;2024-02-15T01:37:25;36.40;;;20.45;;
53253;SDS011;75200;53.048;7.552;2024-02-15T01:39:51;35.92;;;19.02;;
53253;SDS011;75200;53.048;7.552;2024-02-15T01:42:17;39.17;;;21.10;;
53253;SDS011;75200;53.048;7.552;2024-02-15T01:44:44;37.70;;;19.98;;
53253;SDS011;75200;53.048;7.552;2024-02-15T01:47:10;32.33;;;16.90;;
53253;SDS011;75200;53.048;7.552;2024-02-15T01:49:36;36.58;;;18.10;;
53253;SDS011;75200;53.048;7.552;2024-02-15T01:52:02;36.42;;;18.38;;
53253;SDS011;75200;53.048;7.552;2024-02-15T01:54:34;32.00;;;17.60;;
53253;SDS011;75200;53.048;7.552;2024-02-15T01:57:01;34.40;;;16.17;;
53253;SDS011;75200;53.048;7.552;2024-02-15T01:59:28;30.77;;;15.55;;
53253;SDS011;75200;53.048;7.552;2024-02-15T02:01:55;27.67;;;13.57;;
53253;SDS011;75200;53.048;7.552;2024-02-15T02:04:21;29.08;;;14.35;;
53253;SDS011;75200;53.048;7.552;2024-02-15T02:06:46;26.30;;;12.60;;
53253;SDS011;75200;53.048;7.552;2024-02-15T02:09:12;27.10;;;13.82;;
53253;SDS011;75200;53.048;7.552;2024-02-15T02:11:43;28.35;;;14.02;;
53253;SDS011;75200;53.048;7.552;2024-02-15T02:14:11;29.80;;;15.52;;
53253;SDS011;75200;53.048;7.552;2024-02-15T02:16:37;28.75;;;15.38;;
53253;SDS011;75200;53.048;7.552;2024-02-15T02:19:04;30.35;;;16.15;;
53253;SDS011;75200;53.048;7.552;2024-02-15T02:21:37;25.13;;;14.70;;
53253;SDS011;75200;53.048;7.552;2024-02-15T02:24:04;27.75;;;15.32;;
53253;SDS011;75200;53.048;7.552;2024-02-15T02:26:38;24.98;;;13.77;;
53253;SDS011;75200;53.048;7.552;2024-02-15T02:29:04;21.40;;;12.73;;
53253;SDS011;75200;53.048;7.552;2024-02-15T02:31:35;25.40;;;13.70;;
53253;SDS011;75200;53.048;7.552;2024-02-15T02:34:01;23.02;;;12.90;;
53253;SDS011;75200;53.048;7.552;2024-02-15T02:36:27;22.33;;;13.13;;
53253;SDS011;75200;53.048;7.552;2024-02-15T02:38:54;26.40;;;13.10;;
53253;SDS011;75200;53.048;7.552;2024-02-15T02:41:25;24.92;;;13.45;;
53253;SDS011;75200;53.048;7.552;2024-02-15T02:43:56;32.33;;;14.98;;
53253;SDS011;75200;53.048;7.552;2024-02-15T02:46:22;27.10;;;13.50;;
53253;SDS011;75200;53.048;7.552;2024-02-15T02:48:48;26.75;;;14.13;;
53253;SDS011;75200;53.048;7.552;2024-02-15T02:51:14;26.58;;;13.98;;
53253;SDS011;75200;53.048;7.552;2024-02-15T02:53:40;26.83;;;13.75;;
53253;SDS011;75200;53.048;7.552;2024-02-15T02:56:07;28.70;;;14.90;;
53253;SDS011;75200;53.048;7.552;2024-02-15T02:58:36;31.55;;;15.10;;
53253;SDS011;75200;53.048;7.552;2024-02-15T03:01:01;35.58;;;14.80;;
53253;SDS011;75200;53.048;7.552;2024-02-15T03:03:27;38.28;;;16.85;;
53253;SDS011;75200;53.048;7.552;2024-02-15T03:05:54;27.33;;;13.52;;
53253;SDS011;75200;53.048;7.552;2024-02-15T03:08:20;35.90;;;15.30;;
53253;SDS011;75200;53.048;7.552;2024-02-15T03:10:47;43.22;;;16.15;;
53253;SDS011;75200;53.048;7.552;2024-02-15T03:13:13;45.42;;;15.52;;
53253;SDS011;75200;53.048;7.552;2024-02-15T03:15:38;34.10;;;14.20;;
53253;SDS011;75200;53.048;7.552;2024-02-15T03:18:06;34.28;;;15.02;;
53253;SDS011;75200;53.048;7.552;2024-02-15T03:20:33;33.85;;;15.18;;
53253;SDS011;75200;53.048;7.552;2024-02-15T03:23:02;37.72;;;14.82;;
53253;SDS011;75200;53.048;7.552;2024-02-15T03:25:28;33.53;;;14.32;;
53253;SDS011;75200;53.048;7.552;2024-02-15T03:27:56;33.38;;;13.48;;
53253;SDS011;75200;53.048;7.552;2024-02-15T03:30:23;33.08;;;13.85;;
53253;SDS011;75200;53.048;7.552;2024-02-15T03:32:50;44.40;;;15.02;;
53253;SDS011;75200;53.048;7.552;2024-02-15T03:35:23;37.78;;;15.32;;
53253;SDS011;75200;53.048;7.552;2024-02-15T03:37:50;39.03;;;15.70;;
53253;SDS011;75200;53.048;7.552;2024-02-15T03:40:16;47.47;;;15.48;;
53253;SDS011;75200;53.048;7.552;2024-02-15T03:42:46;41.45;;;15.70;;
53253;SDS011;75200;53.048;7.552;2024-02-15T03:45:12;32.17;;;13.65;;
53253;SDS011;75200;53.048;7.552;2024-02-15T03:47:38;39.58;;;16.02;;
53253;SDS011;75200;53.048;7.552;2024-02-15T03:50:05;46.50;;;16.83;;
53253;SDS011;75200;53.048;7.552;2024-02-15T03:52:33;51.40;;;17.88;;
53253;SDS011;75200;53.048;7.552;2024-02-15T03:55:00;61.38;;;18.70;;
53253;SDS011;75200;53.048;7.552;2024-02-15T03:57:27;61.42;;;17.92;;
53253;SDS011;75200;53.048;7.552;2024-02-15T03:59:53;38.30;;;15.70;;
53253;SDS011;75200;53.048;7.552;2024-02-15T04:02:22;54.38;;;19.20;;
53253;SDS011;75200;53.048;7.552;2024-02-15T04:04:52;44.90;;;16.15;;
53253;SDS011;75200;53.048;7.552;2024-02-15T04:07:20;46.70;;;17.52;;
53253;SDS011;75200;53.048;7.552;2024-02-15T04:09:46;50.65;;;16.77;;
53253;SDS011;75200;53.048;7.552;2024-02-15T04:12:13;43.42;;;17.02;;
53253;SDS011;75200;53.048;7.552;2024-02-15T04:14:43;47.88;;;17.50;;
53253;SDS011;75200;53.048;7.552;2024-02-15T04:17:12;51.88;;;18.60;;
53253;SDS011;75200;53.048;7.552;2024-02-15T04:19:46;55.75;;;17.90;;
53253;SDS011;75200;53.048;7.552;2024-02-15T04:22:13;50.00;;;18.35;;
53253;SDS011;75200;53.048;7.552;2024-02-15T04:24:44;49.88;;;18.77;;
53253;SDS011;75200;53.048;7.552;2024-02-15T04:27:10;47.20;;;17.73;;
53253;SDS011;75200;53.048;7.552;2024-02-15T04:29:42;63.80;;;20.75;;
53253;SDS011;75200;53.048;7.552;2024-02-15T04:32:09;64.35;;;22.25;;
53253;SDS011;75200;53.048;7.552;2024-02-15T04:34:39;70.57;;;20.95;;
53253;SDS011;75200;53.048;7.552;2024-02-15T04:37:05;89.38;;;23.63;;
53253;SDS011;75200;53.048;7.552;2024-02-15T04:39:34;76.85;;;24.60;;
53253;SDS011;75200;53.048;7.552;2024-02-15T04:42:01;70.78;;;24.08;;
53253;SDS011;75200;53.048;7.552;2024-02-15T04:44:39;62.08;;;23.30;;
53253;SDS011;75200;53.048;7.552;2024-02-15T04:47:05;87.28;;;29.55;;
53253;SDS011;75200;53.048;7.552;2024-02-15T04:49:31;132.90;;;33.50;;
53253;SDS011;75200;53.048;7.552;2024-02-15T04:51:57;87.35;;;30.95;;
53253;SDS011;75200;53.048;7.552;2024-02-15T04:54:23;71.15;;;27.13;;
53253;SDS011;75200;53.048;7.552;2024-02-15T04:56:49;133.30;;;34.08;;
53253;SDS011;75200;53.048;7.552;2024-02-15T04:59:20;81.90;;;27.50;;
53253;SDS011;75200;53.048;7.552;2024-02-15T05:01:47;78.43;;;28.63;;
53253;SDS011;75200;53.048;7.552;2024-02-15T05:04:14;75.80;;;28.13;;
53253;SDS011;75200;53.048;7.552;2024-02-15T05:06:41;59.53;;;24.27;;
53253;SDS011;75200;53.048;7.552;2024-02-15T05:09:07;65.30;;;26.15;;
53253;SDS011;75200;53.048;7.552;2024-02-15T05:11:41;54.80;;;23.77;;
53253;SDS011;75200;53.048;7.552;2024-02-15T05:14:11;56.05;;;23.73;;
53253;SDS011;75200;53.048;7.552;2024-02-15T05:16:37;50.92;;;22.33;;
53253;SDS011;75200;53.048;7.552;2024-02-15T05:19:12;42.33;;;20.25;;
53253;SDS011;75200;53.048;7.552;2024-02-15T05:21:39;41.47;;;20.63;;
53253;SDS011;75200;53.048;7.552;2024-02-15T05:24:06;50.60;;;22.27;;
53253;SDS011;75200;53.048;7.552;2024-02-15T05:26:32;44.42;;;21.60;;
53253;SDS011;75200;53.048;7.552;2024-02-15T05:28:58;53.67;;;22.08;;
53253;SDS011;75200;53.048;7.552;2024-02-15T05:31:24;45.17;;;20.58;;
53253;SDS011;75200;53.048;7.552;2024-02-15T05:33:53;45.08;;;21.23;;
53253;SDS011;75200;53.048;7.552;2024-02-15T05:36:20;42.70;;;21.08;;
53253;SDS011;75200;53.048;7.552;2024-02-15T05:38:47;37.20;;;20.02;;
53253;SDS011;75200;53.048;7.552;2024-02-15T05:41:18;38.15;;;20.05;;
53253;SDS011;75200;53.048;7.552;2024-02-15T05:43:45;35.40;;;18.23;;
53253;SDS011;75200;53.048;7.552;2024-02-15T05:46:13;37.33;;;21.30;;
53253;SDS011;75200;53.048;7.552;2024-02-15T05:48:39;38.38;;;21.67;;
53253;SDS011;75200;53.048;7.552;2024-02-15T05:51:06;40.17;;;21.88;;
53253;SDS011;75200;53.048;7.552;2024-02-15T05:53:33;41.53;;;21.17;;
53253;SDS011;75200;53.048;7.552;2024-02-15T05:56:06;48.70;;;23.05;;
53253;SDS011;75200;53.048;7.552;2024-02-15T05:58:33;48.05;;;25.05;;
53253;SDS011;75200;53.048;7.552;2024-02-15T06:01:00;42.50;;;22.63;;
53253;SDS011;75200;53.048;7.552;2024-02-15T06:03:28;44.08;;;23.10;;
53253;SDS011;75200;53.048;7.552;2024-02-15T06:05:54;47.88;;;23.73;;
53253;SDS011;75200;53.048;7.552;2024-02-15T06:08:26;41.08;;;20.83;;
53253;SDS011;75200;53.048;7.552;2024-02-15T06:13:21;36.22;;;21.60;;
53253;SDS011;75200;53.048;7.552;2024-02-15T06:15:47;39.63;;;20.50;;
53253;SDS011;75200;53.048;7.552;2024-02-15T06:18:21;36.92;;;23.42;;
53253;SDS011;75200;53.048;7.552;2024-02-15T06:20:50;32.78;;;20.55;;
53253;SDS011;75200;53.048;7.552;2024-02-15T06:23:19;37.58;;;21.10;;
53253;SDS011;75200;53.048;7.552;2024-02-15T06:25:46;37.45;;;22.50;;
53253;SDS011;75200;53.048;7.552;2024-02-15T06:28:16;37.47;;;21.13;;
53253;SDS011;75200;53.048;7.552;2024-02-15T06:31:04;38.75;;;24.42;;
53253;SDS011;75200;53.048;7.552;2024-02-15T06:33:49;44.55;;;26.15;;
53253;SDS011;75200;53.048;7.552;2024-02-15T06:36:34;37.42;;;23.55;;
53253;SDS011;75200;53.048;7.552;2024-02-15T06:39:19;34.17;;;21.10;;
53253;SDS011;75200;53.048;7.552;2024-02-15T06:42:03;30.92;;;19.10;;
53253;SDS011;75200;53.048;7.552;2024-02-15T06:44:29;40.00;;;24.15;;
53253;SDS011;75200;53.048;7.552;2024-02-15T06:46:55;36.70;;;23.55;;
53253;SDS011;75200;53.048;7.552;2024-02-15T06:49:22;34.88;;;23.63;;
53253;SDS011;75200;53.048;7.552;2024-02-15T06:51:50;38.10;;;24.20;;
53253;SDS011;75200;53.048;7.552;2024-02-15T06:54:16;34.17;;;20.52;;
53253;SDS011;75200;53.048;7.552;2024-02-15T06:56:43;38.05;;;21.67;;
53253;SDS011;75200;53.048;7.552;2024-02-15T06:59:11;37.33;;;20.75;;
53253;SDS011;75200;53.048;7.552;2024-02-15T07:01:41;34.55;;;22.25;;
53253;SDS011;75200;53.048;7.552;2024-02-15T07:04:07;34.70;;;22.00;;
53253;SDS011;75200;53.048;7.552;2024-02-15T07:06:37;34.47;;;21.00;;
53253;SDS011;75200;53.048;7.552;2024-02-15T07:09:04;38.97;;;22.65;;
53253;SDS011;75200;53.048;7.552;2024-02-15T07:11:34;34.10;;;20.88;;
53253;SDS011;75200;53.048;7.552;2024-02-15T07:14:00;37.03;;;21.40;;
53253;SDS011;75200;53.048;7.552;2024-02-15T07:16:32;30.58;;;19.42;;
53253;SDS011;75200;53.048;7.552;2024-02-15T07:18:58;35.00;;;20.73;;
53253;SDS011;75200;53.048;7.552;2024-02-15T07:21:25;35.80;;;21.05;;
53253;SDS011;75200;53.048;7.552;2024-02-15T07:23:53;33.67;;;19.63;;
53253;SDS011;75200;53.048;7.552;2024-02-15T07:26:20;29.13;;;19.65;;
53253;SDS011;75200;53.048;7.552;2024-02-15T07:28:50;31.17;;;19.35;;
53253;SDS011;75200;53.048;7.552;2024-02-15T07:31:20;29.77;;;19.15;;
53253;SDS011;75200;53.048;7.552;2024-02-15T07:33:52;32.28;;;18.70;;
53253;SDS011;75200;53.048;7.552;2024-02-15T07:36:19;28.15;;;19.00;;
53253;SDS011;75200;53.048;7.552;2024-02-15T07:38:47;30.27;;;16.20;;
53253;SDS011;75200;53.048;7.552;2024-02-15T07:41:22;29.30;;;19.52;;
53253;SDS011;75200;53.048;7.552;2024-02-15T07:43:49;35.03;;;20.25;;
53253;SDS011;75200;53.048;7.552;2024-02-15T07:46:16;28.15;;;15.45;;
53253;SDS011;75200;53.048;7.552;2024-02-15T07:48:45;35.63;;;18.38;;
53253;SDS011;75200;53.048;7.552;2024-02-15T07:51:21;29.48;;;16.35;;
53253;SDS011;75200;53.048;7.552;2024-02-15T07:53:48;28.05;;;16.92;;
53253;SDS011;75200;53.048;7.552;2024-02-15T07:56:15;30.00;;;15.98;;
53253;SDS011;75200;53.048;7.552;2024-02-15T07:58:42;32.78;;;17.08;;
53253;SDS011;75200;53.048;7.552;2024-02-15T08:01:13;30.25;;;16.95;;
53253;SDS011;75200;53.048;7.552;2024-02-15T08:03:42;29.67;;;16.20;;
53253;SDS011;75200;53.048;7.552;2024-02-15T08:06:13;30.27;;;19.15;;
53253;SDS011;75200;53.048;7.552;2024-02-15T08:08:44;29.38;;;17.48;;
53253;SDS011;75200;53.048;7.552;2024-02-15T08:11:12;32.47;;;17.75;;
53253;SDS011;75200;53.048;7.552;2024-02-15T08:13:45;32.90;;;18.02;;
53253;SDS011;75200;53.048;7.552;2024-02-15T08:16:21;30.35;;;17.60;;
53253;SDS011;75200;53.048;7.552;2024-02-15T08:18:48;30.05;;;16.67;;
53253;SDS011;75200;53.048;7.552;2024-02-15T08:21:17;25.33;;;15.30;;
53253;SDS011;75200;53.048;7.552;2024-02-15T08:23:43;28.40;;;16.25;;
53253;SDS011;75200;53.048;7.552;2024-02-15T08:26:09;27.13;;;15.93;;
53253;SDS011;75200;53.048;7.552;2024-02-15T08:28:38;28.73;;;12.57;;
53253;SDS011;75200;53.048;7.552;2024-02-15T08:31:04;25.27;;;14.52;;
53253;SDS011;75200;53.048;7.552;2024-02-15T08:33:32;26.33;;;14.75;;
53253;SDS011;75200;53.048;7.552;2024-02-15T08:35:58;29.52;;;15.68;;
53253;SDS011;75200;53.048;7.552;2024-02-15T08:38:27;27.60;;;14.13;;
53253;SDS011;75200;53.048;7.552;2024-02-15T08:40:52;23.05;;;12.95;;
53253;SDS011;75200;53.048;7.552;2024-02-15T08:43:18;29.73;;;14.85;;
53253;SDS011;75200;53.048;7.552;2024-02-15T08:45:44;30.02;;;16.17;;
53253;SDS011;75200;53.048;7.552;2024-02-15T08:48:10;28.52;;;13.88;;
53253;SDS011;75200;53.048;7.552;2024-02-15T08:50:37;32.65;;;17.02;;
53253;SDS011;75200;53.048;7.552;2024-02-15T08:53:03;28.92;;;14.98;;
53253;SDS011;75200;53.048;7.552;2024-02-15T08:55:33;32.90;;;15.32;;
53253;SDS011;75200;53.048;7.552;2024-02-15T08:58:01;37.58;;;16.80;;
53253;SDS011;75200;53.048;7.552;2024-02-15T09:00:27;33.97;;;16.50;;
53253;SDS011;75200;53.048;7.552;2024-02-15T09:02:53;36.53;;;19.02;;
53253;SDS011;75200;53.048;7.552;2024-02-15T09:05:19;32.70;;;17.85;;
53253;SDS011;75200;53.048;7.552;2024-02-15T09:07:47;33.17;;;17.45;;
53253;SDS011;75200;53.048;7.552;2024-02-15T09:10:13;26.27;;;14.50;;
53253;SDS011;75200;53.048;7.552;2024-02-15T09:12:42;32.72;;;17.42;;
53253;SDS011;75200;53.048;7.552;2024-02-15T09:15:10;30.75;;;17.42;;
53253;SDS011;75200;53.048;7.552;2024-02-15T09:17:36;35.30;;;19.73;;
53253;SDS011;75200;53.048;7.552;2024-02-15T09:20:08;28.15;;;16.92;;
53253;SDS011;75200;53.048;7.552;2024-02-15T09:22:48;38.05;;;21.65;;
53253;SDS011;75200;53.048;7.552;2024-02-15T09:25:17;28.80;;;18.00;;
53253;SDS011;75200;53.048;7.552;2024-02-15T09:27:44;28.20;;;16.80;;
53253;SDS011;75200;53.048;7.552;2024-02-15T09:30:12;24.85;;;14.43;;
53253;SDS011;75200;53.048;7.552;2024-02-15T09:32:38;23.30;;;14.75;;
53253;SDS011;75200;53.048;7.552;2024-02-15T09:35:05;21.50;;;12.13;;
53253;SDS011;75200;53.048;7.552;2024-02-15T09:37:34;22.27;;;13.30;;
53253;SDS011;75200;53.048;7.552;2024-02-15T09:40:00;22.13;;;11.57;;
53253;SDS011;75200;53.048;7.552;2024-02-15T09:42:31;18.75;;;12.27;;
53253;SDS011;75200;53.048;7.552;2024-02-15T09:45:00;22.90;;;14.95;;
53253;SDS011;75200;53.048;7.552;2024-02-15T09:47:30;22.95;;;13.18;;
53253;SDS011;75200;53.048;7.552;2024-02-15T09:50:00;21.77;;;12.10;;
53253;SDS011;75200;53.048;7.552;2024-02-15T09:52:28;21.52;;;13.57;;
53253;SDS011;75200;53.048;7.552;2024-02-15T09:54:57;21.88;;;12.98;;
53253;SDS011;75200;53.048;7.552;2024-02-15T09:57:25;16.27;;;10.55;;
53253;SDS011;75200;53.048;7.552;2024-02-15T09:59:52;16.63;;;9.80;;
53253;SDS011;75200;53.048;7.552;2024-02-15T10:02:19;21.73;;;13.23;;
53253;SDS011;75200;53.048;7.552;2024-02-15T10:04:46;18.13;;;12.68;;
53253;SDS011;75200;53.048;7.552;2024-02-15T10:07:12;22.23;;;11.82;;
53253;SDS011;75200;53.048;7.552;2024-02-15T10:09:38;22.35;;;12.57;;
53253;SDS011;75200;53.048;7.552;2024-02-15T10:12:08;24.52;;;13.10;;
53253;SDS011;75200;53.048;7.552;2024-02-15T10:14:35;18.13;;;10.65;;
53253;SDS011;75200;53.048;7.552;2024-02-15T10:17:06;20.65;;;11.45;;
53253;SDS011;75200;53.048;7.552;2024-02-15T10:19:40;26.98;;;13.32;;
53253;SDS011;75200;53.048;7.552;2024-02-15T10:22:09;25.55;;;13.82;;
53253;SDS011;75200;53.048;7.552;2024-02-15T10:24:36;20.35;;;10.88;;
53253;SDS011;75200;53.048;7.552;2024-02-15T10:27:04;21.48;;;11.88;;
53253;SDS011;75200;53.048;7.552;2024-02-15T10:32:02;18.13;;;10.95;;
53253;SDS011;75200;53.048;7.552;2024-02-15T10:34:29;21.85;;;10.63;;
53253;SDS011;75200;53.048;7.552;2024-02-15T10:37:29;17.23;;;9.95;;
53253;SDS011;75200;53.048;7.552;2024-02-15T10:40:21;15.52;;;9.82;;
53253;SDS011;75200;53.048;7.552;2024-02-15T10:42:44;18.73;;;9.52;;
53253;SDS011;75200;53.048;7.552;2024-02-15T10:45:13;18.50;;;11.18;;
53253;SDS011;75200;53.048;7.552;2024-02-15T10:47:43;20.90;;;12.70;;
53253;SDS011;75200;53.048;7.552;2024-02-15T10:50:11;19.15;;;10.75;;
53253;SDS011;75200;53.048;7.552;2024-02-15T10:52:37;15.98;;;8.85;;
53253;SDS011;75200;53.048;7.552;2024-02-15T10:55:28;19.73;;;10.80;;
53253;SDS011;75200;53.048;7.552;2024-02-15T10:58:04;15.45;;;9.73;;
53253;SDS011;75200;53.048;7.552;2024-02-15T11:00:34;18.63;;;9.68;;
53253;SDS011;75200;53.048;7.552;2024-02-15T11:03:05;15.15;;;7.45;;
53253;SDS011;75200;53.048;7.552;2024-02-15T11:05:34;12.68;;;8.30;;
53253;SDS011;75200;53.048;7.552;2024-02-15T11:08:10;13.38;;;8.18;;
53253;SDS011;75200;53.048;7.552;2024-02-15T11:10:36;11.02;;;6.70;;
53253;SDS011;75200;53.048;7.552;2024-02-15T11:13:04;11.48;;;6.25;;
53253;SDS011;75200;53.048;7.552;2024-02-15T11:15:51;14.40;;;6.95;;
53253;SDS011;75200;53.048;7.552;2024-02-15T11:21:17;10.65;;;6.70;;
53253;SDS011;75200;53.048;7.552;2024-02-15T11:23:46;14.55;;;6.57;;
53253;SDS011;75200;53.048;7.552;2024-02-15T11:35:11;8.15;;;4.93;;
53253;SDS011;75200;53.048;7.552;2024-02-15T11:40:16;7.50;;;4.80;;
53253;SDS011;75200;53.048;7.552;2024-02-15T11:42:49;7.40;;;4.75;;
53253;SDS011;75200;53.048;7.552;2024-02-15T11:45:18;7.78;;;3.90;;
53253;SDS011;75200;53.048;7.552;2024-02-15T11:47:45;7.95;;;4.10;;
53253;SDS011;75200;53.048;7.552;2024-02-15T11:50:16;6.07;;;4.43;;
53253;SDS011;75200;53.048;7.552;2024-02-15T11:52:52;9.85;;;5.20;;
53253;SDS011;75200;53.048;7.552;2024-02-15T11:55:31;7.35;;;4.05;;
53253;SDS011;75200;53.048;7.552;2024-02-15T11:57:58;7.05;;;3.63;;
53253;SDS011;75200;53.048;7.552;2024-02-15T12:00:48;7.63;;;4.00;;
53253;SDS011;75200;53.048;7.552;2024-02-15T12:03:32;7.88;;;4.60;;
53253;SDS011;75200;53.048;7.552;2024-02-15T12:06:17;6.60;;;3.83;;
53253;SDS011;75200;53.048;7.552;2024-02-15T12:09:01;5.85;;;4.00;;
53253;SDS011;75200;53.048;7.552;2024-02-15T12:11:46;5.45;;;4.00;;
53253;SDS011;75200;53.048;7.552;2024-02-15T12:14:31;6.53;;;4.13;;
53253;SDS011;75200;53.048;7.552;2024-02-15T12:17:15;7.63;;;3.60;;
53253;SDS011;75200;53.048;7.552;2024-02-15T12:20:00;6.55;;;3.78;;
53253;SDS011;75200;53.048;7.552;2024-02-15T12:22:36;6.55;;;3.70;;
53253;SDS011;75200;53.048;7.552;2024-02-15T12:25:13;5.85;;;3.17;;
53253;SDS011;75200;53.048;7.552;2024-02-15T12:27:43;7.25;;;3.88;;
53253;SDS011;75200;53.048;7.552;2024-02-15T12:30:16;5.80;;;3.05;;
53253;SDS011;75200;53.048;7.552;2024-02-15T12:32:50;5.68;;;3.35;;
53253;SDS011;75200;53.048;7.552;2024-02-15T12:35:19;6.63;;;3.05;;
53253;SDS011;75200;53.048;7.552;2024-02-15T12:40:30;7.13;;;3.90;;
53253;SDS011;75200;53.048;7.552;2024-02-15T12:42:57;4.90;;;3.03;;
53253;SDS011;75200;53.048;7.552;2024-02-15T12:45:25;6.40;;;3.20;;
53253;SDS011;75200;53.048;7.552;2024-02-15T12:47:55;7.32;;;3.80;;
53253;SDS011;75200;53.048;7.552;2024-02-15T12:50:28;5.25;;;3.67;;
53253;SDS011;75200;53.048;7.552;2024-02-15T12:52:55;5.65;;;2.97;;
53253;SDS011;75200;53.048;7.552;2024-02-15T12:55:24;4.50;;;2.80;;
53253;SDS011;75200;53.048;7.552;2024-02-15T12:57:50;5.82;;;3.35;;
53253;SDS011;75200;53.048;7.552;2024-02-15T13:00:21;5.60;;;2.83;;
53253;SDS011;75200;53.048;7.552;2024-02-15T13:02:49;7.38;;;3.35;;
53253;SDS011;75200;53.048;7.552;2024-02-15T13:05:19;5.78;;;3.13;;
53253;SDS011;75200;53.048;7.552;2024-02-15T13:07:47;6.93;;;3.08;;
53253;SDS011;75200;53.048;7.552;2024-02-15T13:10:13;5.45;;;3.15;;
53253;SDS011;75200;53.048;7.552;2024-02-15T13:12:42;5.75;;;2.67;;
53253;SDS011;75200;53.048;7.552;2024-02-15T13:15:15;6.03;;;3.00;;
53253;SDS011;75200;53.048;7.552;2024-02-15T13:17:46;5.00;;;2.65;;
53253;SDS011;75200;53.048;7.552;2024-02-15T13:20:19;5.43;;;2.90;;
53253;SDS011;75200;53.048;7.552;2024-02-15T13:22:55;5.57;;;2.85;;
53253;SDS011;75200;53.048;7.552;2024-02-15T13:25:25;5.23;;;2.90;;
53253;SDS011;75200;53.048;7.552;2024-02-15T13:27:53;5.30;;;2.70;;
53253;SDS011;75200;53.048;7.552;2024-02-15T13:30:19;4.78;;;2.10;;
53253;SDS011;75200;53.048;7.552;2024-02-15T13:32:49;4.97;;;2.50;;
53253;SDS011;75200;53.048;7.552;2024-02-15T13:35:17;5.47;;;3.00;;
53253;SDS011;75200;53.048;7.552;2024-02-15T13:40:15;7.03;;;2.92;;
53253;SDS011;75200;53.048;7.552;2024-02-15T13:42:44;5.88;;;3.00;;
53253;SDS011;75200;53.048;7.552;2024-02-15T13:48:00;7.90;;;3.28;;
53253;SDS011;75200;53.048;7.552;2024-02-15T13:50:28;7.97;;;3.40;;
53253;SDS011;75200;53.048;7.552;2024-02-15T13:52:55;8.57;;;4.20;;
53253;SDS011;75200;53.048;7.552;2024-02-15T13:55:20;5.13;;;2.95;;
53253;SDS011;75200;53.048;7.552;2024-02-15T13:57:47;6.30;;;3.10;;
53253;SDS011;75200;53.048;7.552;2024-02-15T14:00:14;5.80;;;3.05;;
53253;SDS011;75200;53.048;7.552;2024-02-15T14:05:19;8.68;;;3.60;;
53253;SDS011;75200;53.048;7.552;2024-02-15T14:07:55;7.88;;;3.00;;
53253;SDS011;75200;53.048;7.552;2024-02-15T14:10:22;7.47;;;3.92;;
53253;SDS011;75200;53.048;7.552;2024-02-15T14:12:49;7.70;;;3.53;;
53253;SDS011;75200;53.048;7.552;2024-02-15T14:15:27;7.55;;;4.00;;
53253;SDS011;75200;53.048;7.552;2024-02-15T14:17:53;7.95;;;4.00;;
53253;SDS011;75200;53.048;7.552;2024-02-15T14:20:21;8.10;;;3.72;;
53253;SDS011;75200;53.048;7.552;2024-02-15T14:22:47;8.75;;;4.13;;
53253;SDS011;75200;53.048;7.552;2024-02-15T14:25:14;7.78;;;4.63;;
53253;SDS011;75200;53.048;7.552;2024-02-15T14:27:41;8.55;;;4.40;;
53253;SDS011;75200;53.048;7.552;2024-02-15T14:30:08;12.07;;;6.00;;
53253;SDS011;75200;53.048;7.552;2024-02-15T14:32:52;12.00;;;5.22;;
53253;SDS011;75200;53.048;7.552;2024-02-15T14:35:36;11.75;;;5.93;;
53253;SDS011;75200;53.048;7.552;2024-02-15T14:38:04;11.00;;;6.47;;
53253;SDS011;75200;53.048;7.552;2024-02-15T14:40:36;13.43;;;7.10;;
53253;SDS011;75200;53.048;7.552;2024-02-15T14:43:06;10.50;;;7.15;;
53253;SDS011;75200;53.048;7.552;2024-02-15T14:45:39;10.15;;;7.32;;
53253;SDS011;75200;53.048;7.552;2024-02-15T14:48:06;18.35;;;7.78;;
53253;SDS011;75200;53.048;7.552;2024-02-15T14:50:36;13.38;;;8.38;;
53253;SDS011;75200;53.048;7.552;2024-02-15T14:53:02;17.27;;;8.27;;
53253;SDS011;75200;53.048;7.552;2024-02-15T14:55:28;13.52;;;8.60;;
53253;SDS011;75200;53.048;7.552;2024-02-15T14:57:56;16.38;;;9.30;;
53253;SDS011;75200;53.048;7.552;2024-02-15T15:00:23;16.42;;;9.57;;
53253;SDS011;75200;53.048;7.552;2024-02-15T15:02:49;16.88;;;9.85;;
53253;SDS011;75200;53.048;7.552;2024-02-15T15:05:15;17.35;;;9.90;;
53253;SDS011;75200;53.048;7.552;2024-02-15T15:08:01;20.00;;;11.75;;
53253;SDS011;75200;53.048;7.552;2024-02-15T15:10:45;14.20;;;8.98;;